createdAt,value
2018-12-17T00:00:39.230Z,2.54
2018-12-17T00:01:39.218Z,2.65
2018-12-17T00:02:39.207Z,2.56
2018-12-17T00:03:39.197Z,2.62
2018-12-17T00:04:39.186Z,2.60
2018-12-17T00:05:41.841Z,2.53
2018-12-17T00:06:41.092Z,2.53
2018-12-17T00:07:39.149Z,2.53
2018-12-17T00:08:39.138Z,2.56
2018-12-17T00:09:39.124Z,2.49
2018-12-17T00:10:39.113Z,2.49
2018-12-17T00:11:39.104Z,2.50
2018-12-17T00:12:39.089Z,2.44
2018-12-17T00:13:39.077Z,2.47
2018-12-17T00:14:39.064Z,2.53
2018-12-17T00:15:39.062Z,2.42
2018-12-17T00:16:39.045Z,2.50
2018-12-17T00:17:39.035Z,2.47
2018-12-17T00:18:39.023Z,2.56
2018-12-17T00:19:39.010Z,2.54
2018-12-17T00:20:38.999Z,2.50
2018-12-17T00:21:38.985Z,2.46
2018-12-17T00:22:38.977Z,2.44
2018-12-17T00:23:38.966Z,2.47
2018-12-17T00:24:38.948Z,2.38
2018-12-17T00:25:38.935Z,2.49
2018-12-17T00:26:38.930Z,2.47
2018-12-17T00:27:38.919Z,2.49
2018-12-17T00:28:38.917Z,2.47
2018-12-17T00:29:38.892Z,2.50
2018-12-17T00:30:38.883Z,2.51
2018-12-17T00:31:38.869Z,2.46
2018-12-17T00:32:38.877Z,2.56
2018-12-17T00:33:38.850Z,2.49
2018-12-17T00:34:38.839Z,2.31
2018-12-17T00:35:38.824Z,2.36
2018-12-17T00:36:38.808Z,2.42
2018-12-17T00:37:38.803Z,2.36
2018-12-17T00:38:38.795Z,2.35
2018-12-17T00:39:38.779Z,2.29
2018-12-17T00:40:38.771Z,2.39
2018-12-17T00:41:38.758Z,2.44
2018-12-17T00:42:38.748Z,2.32
2018-12-17T00:43:38.733Z,2.39
2018-12-17T00:44:38.724Z,2.33
2018-12-17T00:45:38.713Z,2.32
2018-12-17T00:46:38.693Z,2.31
2018-12-17T00:47:38.688Z,2.39
2018-12-17T00:48:38.676Z,2.38
2018-12-17T00:49:38.661Z,2.46
2018-12-17T00:50:38.659Z,2.39
2018-12-17T00:51:38.641Z,2.35
2018-12-17T00:52:38.633Z,2.43
2018-12-17T00:53:38.619Z,2.43
2018-12-17T00:54:38.611Z,2.42
2018-12-17T00:55:40.116Z,2.44
2018-12-17T00:56:38.587Z,2.43
2018-12-17T00:57:39.567Z,2.47
2018-12-17T00:58:38.555Z,2.36
2018-12-17T00:59:38.551Z,2.42
2018-12-17T01:00:38.538Z,2.32
2018-12-17T01:01:38.525Z,2.49
2018-12-17T01:02:38.514Z,2.38
2018-12-17T01:03:38.502Z,2.38
2018-12-17T01:04:38.493Z,2.42
2018-12-17T01:05:38.481Z,2.35
2018-12-17T01:06:40.114Z,2.39
2018-12-17T01:07:38.458Z,2.46
2018-12-17T01:08:38.443Z,2.44
2018-12-17T01:09:38.432Z,2.53
2018-12-17T01:10:38.421Z,2.50
2018-12-17T01:11:38.410Z,2.49
2018-12-17T01:12:38.400Z,2.49
2018-12-17T01:13:38.384Z,2.44
2018-12-17T01:14:38.374Z,2.38
2018-12-17T01:15:38.362Z,2.53
2018-12-17T01:16:38.352Z,2.49
2018-12-17T01:17:38.343Z,2.53
2018-12-17T01:18:38.326Z,2.50
2018-12-17T01:19:38.320Z,2.49
2018-12-17T01:20:38.302Z,2.51
2018-12-17T01:21:38.300Z,2.50
2018-12-17T01:22:38.288Z,2.50
2018-12-17T01:23:38.274Z,2.51
2018-12-17T01:24:38.260Z,2.49
2018-12-17T01:25:38.246Z,2.47
2018-12-17T01:26:38.235Z,2.57
2018-12-17T01:27:38.226Z,2.54
2018-12-17T01:28:38.214Z,2.54
2018-12-17T01:29:40.127Z,2.51
2018-12-17T01:30:38.190Z,2.54
2018-12-17T01:31:38.174Z,2.46
2018-12-17T01:32:38.161Z,2.38
2018-12-17T01:33:38.156Z,2.53
2018-12-17T01:34:38.145Z,2.47
2018-12-17T01:35:38.133Z,2.53
2018-12-17T01:36:38.120Z,2.53
2018-12-17T01:37:38.109Z,2.49
2018-12-17T01:38:38.172Z,2.44
2018-12-17T01:39:38.096Z,2.46
2018-12-17T01:40:38.073Z,2.47
2018-12-17T01:41:38.062Z,2.49
2018-12-17T01:42:38.053Z,2.50
2018-12-17T01:43:38.039Z,2.51
2018-12-17T01:44:38.078Z,2.54
2018-12-17T01:45:38.016Z,2.50
2018-12-17T01:46:38.014Z,2.51
2018-12-17T01:47:38.002Z,2.56
2018-12-17T01:48:39.631Z,2.56
2018-12-17T01:49:37.971Z,2.49
2018-12-17T01:50:37.956Z,2.50
2018-12-17T01:51:37.949Z,2.51
2018-12-17T01:52:37.936Z,2.51
2018-12-17T01:53:37.919Z,2.53
2018-12-17T01:54:37.913Z,2.57
2018-12-17T01:55:37.897Z,2.50
2018-12-17T01:56:39.624Z,2.50
2018-12-17T01:57:37.894Z,2.54
2018-12-17T01:58:37.864Z,2.47
2018-12-17T01:59:37.852Z,2.50
2018-12-17T02:00:37.846Z,2.51
2018-12-17T02:01:37.830Z,2.50
2018-12-17T02:02:37.813Z,2.56
2018-12-17T02:03:37.808Z,2.56
2018-12-17T02:04:37.794Z,2.60
2018-12-17T02:05:37.782Z,2.60
2018-12-17T02:06:37.771Z,2.56
2018-12-17T02:07:37.761Z,2.56
2018-12-17T02:08:37.744Z,2.61
2018-12-17T02:09:37.737Z,2.56
2018-12-17T02:10:37.724Z,2.57
2018-12-17T02:11:37.714Z,2.54
2018-12-17T02:12:37.701Z,2.56
2018-12-17T02:13:37.691Z,2.56
2018-12-17T02:14:37.677Z,2.57
2018-12-17T02:15:37.663Z,2.53
2018-12-17T02:16:37.653Z,2.57
2018-12-17T02:17:37.643Z,2.56
2018-12-17T02:18:37.632Z,2.54
2018-12-17T02:19:37.614Z,2.51
2018-12-17T02:20:37.609Z,2.51
2018-12-17T02:21:37.596Z,2.56
2018-12-17T02:22:38.564Z,2.61
2018-12-17T02:23:37.571Z,2.54
2018-12-17T02:24:37.559Z,2.56
2018-12-17T02:25:37.547Z,2.61
2018-12-17T02:26:37.540Z,2.54
2018-12-17T02:27:37.521Z,2.56
2018-12-17T02:28:37.516Z,2.65
2018-12-17T02:29:37.499Z,2.62
2018-12-17T02:30:37.494Z,2.64
2018-12-17T02:31:37.478Z,2.67
2018-12-17T02:32:37.463Z,2.56
2018-12-17T02:33:37.454Z,2.65
2018-12-17T02:34:37.445Z,2.56
2018-12-17T02:35:37.436Z,2.56
2018-12-17T02:36:37.419Z,2.64
2018-12-17T02:37:37.408Z,2.56
2018-12-17T02:38:37.397Z,2.62
2018-12-17T02:39:37.383Z,2.50
2018-12-17T02:40:37.378Z,2.50
2018-12-17T02:41:39.146Z,2.47
2018-12-17T02:42:37.348Z,2.53
2018-12-17T02:43:37.343Z,2.57
2018-12-17T02:44:37.329Z,2.57
2018-12-17T02:45:37.316Z,2.53
2018-12-17T02:46:37.298Z,2.61
2018-12-17T02:47:37.322Z,2.57
2018-12-17T02:48:37.277Z,2.57
2018-12-17T02:49:37.272Z,2.67
2018-12-17T02:50:37.254Z,2.71
2018-12-17T02:51:37.254Z,2.72
2018-12-17T02:52:37.235Z,2.72
2018-12-17T02:53:37.224Z,2.71
2018-12-17T02:54:37.217Z,2.68
2018-12-17T02:55:37.196Z,2.67
2018-12-17T02:56:37.189Z,2.67
2018-12-17T02:57:37.176Z,2.64
2018-12-17T02:58:43.856Z,2.61
2018-12-17T02:59:37.149Z,2.62
2018-12-17T03:00:37.142Z,2.68
2018-12-17T03:01:37.134Z,2.54
2018-12-17T03:02:37.118Z,2.72
2018-12-17T03:03:37.106Z,2.62
2018-12-17T03:04:37.098Z,2.67
2018-12-17T03:05:37.083Z,2.64
2018-12-17T03:06:37.068Z,2.65
2018-12-17T03:07:37.061Z,2.68
2018-12-17T03:08:37.050Z,2.61
2018-12-17T03:09:37.038Z,2.65
2018-12-17T03:10:37.026Z,2.61
2018-12-17T03:11:37.011Z,2.71
2018-12-17T03:12:36.999Z,2.65
2018-12-17T03:13:36.987Z,2.62
2018-12-17T03:14:36.978Z,2.71
2018-12-17T03:15:36.965Z,2.60
2018-12-17T03:16:36.954Z,2.60
2018-12-17T03:17:36.945Z,2.65
2018-12-17T03:18:36.932Z,2.67
2018-12-17T03:19:36.921Z,2.68
2018-12-17T03:20:36.910Z,2.65
2018-12-17T03:21:36.894Z,2.75
2018-12-17T03:22:38.643Z,2.74
2018-12-17T03:23:36.878Z,2.64
2018-12-17T03:24:36.861Z,2.69
2018-12-17T03:25:36.852Z,2.69
2018-12-17T03:26:36.840Z,2.75
2018-12-17T03:27:36.833Z,2.72
2018-12-17T03:28:36.819Z,2.71
2018-12-17T03:29:36.805Z,2.64
2018-12-17T03:30:36.792Z,2.65
2018-12-17T03:31:36.818Z,2.57
2018-12-17T03:32:36.770Z,2.67
2018-12-17T03:33:36.756Z,2.51
2018-12-17T03:34:36.747Z,2.53
2018-12-17T03:35:36.732Z,2.54
2018-12-17T03:36:36.721Z,2.51
2018-12-17T03:37:36.715Z,2.56
2018-12-17T03:38:36.698Z,2.60
2018-12-17T03:39:36.690Z,2.57
2018-12-17T03:40:36.677Z,2.60
2018-12-17T03:41:36.665Z,2.56
2018-12-17T03:42:36.649Z,2.53
2018-12-17T03:43:36.642Z,2.53
2018-12-17T03:44:36.633Z,2.65
2018-12-17T03:45:36.620Z,2.56
2018-12-17T03:46:36.605Z,2.60
2018-12-17T03:47:36.597Z,2.64
2018-12-17T03:48:36.585Z,2.64
2018-12-17T03:49:36.575Z,2.57
2018-12-17T03:50:36.564Z,2.64
2018-12-17T03:51:36.551Z,2.53
2018-12-17T03:52:36.531Z,2.62
2018-12-17T03:53:36.526Z,2.67
2018-12-17T03:54:36.513Z,2.60
2018-12-17T03:55:36.506Z,2.67
2018-12-17T03:56:38.154Z,2.57
2018-12-17T03:57:36.482Z,2.54
2018-12-17T03:58:36.472Z,2.54
2018-12-17T03:59:36.455Z,2.51
2018-12-17T04:00:36.452Z,2.50
2018-12-17T04:01:36.435Z,2.54
2018-12-17T04:02:36.423Z,2.53
2018-12-17T04:03:36.408Z,2.56
2018-12-17T04:04:36.394Z,2.57
2018-12-17T04:05:36.393Z,2.61
2018-12-17T04:06:36.375Z,2.60
2018-12-17T04:07:36.365Z,2.56
2018-12-17T04:08:36.354Z,2.53
2018-12-17T04:09:36.402Z,2.56
2018-12-17T04:10:36.330Z,2.51
2018-12-17T04:11:36.318Z,2.61
2018-12-17T04:12:36.303Z,2.69
2018-12-17T04:13:36.300Z,2.68
2018-12-17T04:14:36.285Z,2.68
2018-12-17T04:15:36.268Z,2.67
2018-12-17T04:16:36.263Z,2.62
2018-12-17T04:17:36.250Z,2.67
2018-12-17T04:18:36.234Z,2.64
2018-12-17T04:19:36.220Z,2.65
2018-12-17T04:20:36.214Z,2.72
2018-12-17T04:21:36.210Z,2.67
2018-12-17T04:22:36.191Z,2.72
2018-12-17T04:23:36.182Z,2.65
2018-12-17T04:24:36.165Z,2.67
2018-12-17T04:25:36.157Z,2.75
2018-12-17T04:26:36.145Z,2.71
2018-12-17T04:27:36.133Z,2.67
2018-12-17T04:28:36.125Z,2.67
2018-12-17T04:29:36.107Z,2.71
2018-12-17T04:30:36.098Z,2.69
2018-12-17T04:31:36.088Z,2.65
2018-12-17T04:32:36.075Z,2.71
2018-12-17T04:33:36.071Z,2.64
2018-12-17T04:34:36.055Z,2.71
2018-12-17T04:35:36.042Z,2.72
2018-12-17T04:36:36.033Z,2.65
2018-12-17T04:37:36.025Z,2.74
2018-12-17T04:38:36.008Z,2.65
2018-12-17T04:39:35.996Z,2.68
2018-12-17T04:40:35.984Z,2.79
2018-12-17T04:41:35.971Z,2.75
2018-12-17T04:42:35.957Z,2.79
2018-12-17T04:43:35.952Z,2.75
2018-12-17T04:44:35.940Z,2.77
2018-12-17T04:45:35.926Z,2.80
2018-12-17T04:46:35.915Z,2.74
2018-12-17T04:47:35.900Z,2.64
2018-12-17T04:48:35.891Z,2.80
2018-12-17T04:49:35.882Z,2.79
2018-12-17T04:50:35.869Z,2.82
2018-12-17T04:51:35.861Z,2.67
2018-12-17T04:52:35.844Z,2.79
2018-12-17T04:53:35.831Z,2.77
2018-12-17T04:54:35.820Z,2.82
2018-12-17T04:55:35.815Z,2.77
2018-12-17T04:56:35.798Z,2.79
2018-12-17T04:57:35.788Z,2.80
2018-12-17T04:58:35.774Z,2.89
2018-12-17T04:59:35.767Z,2.87
2018-12-17T05:00:35.756Z,2.86
2018-12-17T05:01:35.744Z,2.90
2018-12-17T05:02:35.735Z,2.87
2018-12-17T05:03:35.721Z,2.80
2018-12-17T05:04:35.707Z,2.86
2018-12-17T05:05:35.697Z,2.87
2018-12-17T05:06:35.683Z,2.87
2018-12-17T05:07:35.671Z,2.86
2018-12-17T05:08:35.661Z,2.86
2018-12-17T05:09:35.648Z,2.89
2018-12-17T05:10:35.640Z,2.87
2018-12-17T05:11:35.623Z,2.89
2018-12-17T05:12:35.614Z,2.87
2018-12-17T05:13:35.607Z,2.92
2018-12-17T05:14:35.592Z,2.92
2018-12-17T05:15:35.579Z,2.89
2018-12-17T05:16:35.574Z,2.87
2018-12-17T05:17:35.555Z,2.87
2018-12-17T05:18:35.546Z,2.89
2018-12-17T05:19:35.539Z,2.87
2018-12-17T05:20:35.521Z,2.85
2018-12-17T05:21:35.512Z,2.90
2018-12-17T05:22:35.498Z,2.97
2018-12-17T05:23:35.488Z,2.97
2018-12-17T05:24:35.486Z,2.95
2018-12-17T05:25:35.463Z,2.86
2018-12-17T05:26:35.451Z,2.93
2018-12-17T05:27:35.440Z,2.95
2018-12-17T05:28:35.429Z,2.93
2018-12-17T05:29:35.424Z,3.03
2018-12-17T05:30:35.407Z,2.95
2018-12-17T05:31:35.394Z,3.00
2018-12-17T05:32:35.382Z,2.93
2018-12-17T05:33:35.371Z,2.95
2018-12-17T05:34:35.358Z,3.00
2018-12-17T05:35:35.348Z,3.04
2018-12-17T05:36:35.339Z,3.03
2018-12-17T05:37:35.324Z,3.03
2018-12-17T05:38:35.315Z,3.07
2018-12-17T05:39:35.300Z,3.00
2018-12-17T05:40:35.292Z,2.97
2018-12-17T05:41:35.282Z,3.03
2018-12-17T05:42:35.267Z,2.97
2018-12-17T05:43:35.252Z,3.04
2018-12-17T05:44:35.271Z,3.04
2018-12-17T05:45:35.235Z,3.05
2018-12-17T05:46:35.217Z,3.07
2018-12-17T05:47:35.210Z,3.13
2018-12-17T05:48:35.201Z,3.08
2018-12-17T05:49:35.186Z,3.07
2018-12-17T05:50:35.176Z,3.04
2018-12-17T05:51:35.167Z,3.07
2018-12-17T05:52:35.158Z,3.04
2018-12-17T05:53:35.167Z,3.10
2018-12-17T05:54:35.134Z,3.07
2018-12-17T05:55:35.113Z,3.08
2018-12-17T05:56:35.101Z,3.18
2018-12-17T05:57:35.097Z,3.13
2018-12-17T05:58:35.082Z,3.07
2018-12-17T05:59:35.069Z,3.08
2018-12-17T06:00:35.059Z,3.07
2018-12-17T06:01:35.049Z,3.08
2018-12-17T06:02:35.033Z,3.18
2018-12-17T06:03:36.099Z,3.11
2018-12-17T06:04:35.017Z,3.10
2018-12-17T06:05:35.000Z,3.18
2018-12-17T06:06:34.990Z,3.14
2018-12-17T06:07:34.981Z,3.10
2018-12-17T06:08:34.965Z,3.21
2018-12-17T06:09:34.957Z,3.23
2018-12-17T06:10:34.945Z,3.19
2018-12-17T06:11:34.934Z,3.23
2018-12-17T06:12:34.926Z,3.14
2018-12-17T06:13:34.910Z,3.11
2018-12-17T06:14:34.901Z,3.11
2018-12-17T06:15:34.887Z,3.11
2018-12-17T06:16:34.879Z,3.23
2018-12-17T06:17:34.864Z,3.22
2018-12-17T06:18:34.855Z,3.16
2018-12-17T06:19:34.841Z,3.22
2018-12-17T06:20:34.827Z,3.29
2018-12-17T06:21:34.820Z,3.21
2018-12-17T06:22:34.808Z,3.14
2018-12-17T06:23:34.800Z,3.10
2018-12-17T06:24:34.784Z,3.18
2018-12-17T06:25:34.776Z,3.16
2018-12-17T06:26:34.763Z,3.14
2018-12-17T06:27:37.076Z,3.14
2018-12-17T06:28:34.738Z,3.26
2018-12-17T06:29:35.687Z,3.16
2018-12-17T06:30:34.719Z,3.26
2018-12-17T06:31:34.707Z,3.23
2018-12-17T06:32:34.691Z,3.22
2018-12-17T06:33:34.686Z,3.19
2018-12-17T06:34:34.668Z,3.16
2018-12-17T06:35:34.659Z,3.23
2018-12-17T06:36:36.189Z,3.25
2018-12-17T06:37:34.637Z,3.25
2018-12-17T06:38:34.622Z,3.22
2018-12-17T06:39:34.615Z,3.26
2018-12-17T06:40:34.606Z,3.31
2018-12-17T06:41:34.590Z,3.29
2018-12-17T06:42:34.575Z,3.25
2018-12-17T06:43:36.193Z,3.26
2018-12-17T06:44:34.553Z,3.36
2018-12-17T06:45:34.543Z,3.26
2018-12-17T06:46:34.530Z,3.32
2018-12-17T06:47:34.528Z,3.29
2018-12-17T06:48:34.510Z,3.22
2018-12-17T06:49:34.498Z,3.29
2018-12-17T06:50:34.487Z,3.26
2018-12-17T06:51:34.479Z,3.29
2018-12-17T06:52:34.464Z,3.31
2018-12-17T06:53:34.452Z,3.26
2018-12-17T06:54:34.442Z,3.29
2018-12-17T06:55:34.431Z,3.28
2018-12-17T06:56:34.420Z,3.31
2018-12-17T06:57:34.411Z,3.32
2018-12-17T06:58:34.396Z,3.34
2018-12-17T06:59:34.385Z,3.26
2018-12-17T07:00:34.371Z,3.26
2018-12-17T07:01:34.360Z,3.28
2018-12-17T07:02:34.346Z,3.29
2018-12-17T07:03:34.346Z,3.29
2018-12-17T07:04:34.326Z,3.23
2018-12-17T07:05:34.312Z,3.29
2018-12-17T07:06:34.301Z,3.25
2018-12-17T07:07:34.295Z,3.31
2018-12-17T07:08:34.282Z,3.23
2018-12-17T07:09:34.265Z,3.26
2018-12-17T07:10:34.259Z,3.25
2018-12-17T07:11:34.251Z,3.25
2018-12-17T07:12:34.236Z,3.29
2018-12-17T07:13:34.223Z,3.26
2018-12-17T07:14:36.646Z,3.36
2018-12-17T07:15:34.201Z,3.25
2018-12-17T07:16:34.186Z,3.36
2018-12-17T07:17:34.217Z,3.31
2018-12-17T07:18:34.166Z,3.36
2018-12-17T07:19:34.155Z,3.36
2018-12-17T07:20:34.145Z,3.36
2018-12-17T07:21:34.132Z,3.32
2018-12-17T07:22:34.119Z,3.29
2018-12-17T07:23:34.108Z,3.42
2018-12-17T07:24:34.096Z,3.29
2018-12-17T07:25:34.083Z,3.23
2018-12-17T07:26:34.071Z,3.31
2018-12-17T07:27:35.712Z,3.31
2018-12-17T07:28:34.053Z,3.34
2018-12-17T07:29:34.037Z,3.36
2018-12-17T07:30:34.030Z,3.34
2018-12-17T07:31:34.019Z,3.36
2018-12-17T07:32:34.009Z,3.28
2018-12-17T07:33:34.000Z,3.34
2018-12-17T07:34:33.985Z,3.36
2018-12-17T07:35:33.970Z,3.41
2018-12-17T07:36:33.962Z,3.51
2018-12-17T07:37:33.945Z,3.44
2018-12-17T07:38:33.934Z,3.40
2018-12-17T07:39:33.925Z,3.36
2018-12-17T07:40:33.917Z,3.47
2018-12-17T07:41:33.901Z,3.45
2018-12-17T07:42:33.891Z,3.53
2018-12-17T07:43:33.924Z,3.55
2018-12-17T07:44:33.867Z,3.58
2018-12-17T07:45:33.855Z,3.48
2018-12-17T07:46:33.846Z,3.55
2018-12-17T07:47:33.834Z,3.56
2018-12-17T07:48:33.820Z,3.47
2018-12-17T07:49:33.807Z,3.50
2018-12-17T07:50:34.789Z,3.55
2018-12-17T07:51:33.785Z,3.56
2018-12-17T07:52:33.776Z,3.55
2018-12-17T07:53:33.768Z,3.63
2018-12-17T07:54:35.724Z,3.63
2018-12-17T07:55:33.736Z,3.48
2018-12-17T07:56:33.726Z,3.47
2018-12-17T07:57:33.714Z,3.58
2018-12-17T07:58:33.709Z,3.63
2018-12-17T07:59:33.690Z,3.62
2018-12-17T08:00:33.686Z,3.50
2018-12-17T08:01:33.674Z,3.59
2018-12-17T08:02:33.657Z,3.53
2018-12-17T08:03:33.641Z,3.51
2018-12-17T08:04:33.646Z,3.63
2018-12-17T08:05:35.215Z,3.63
2018-12-17T08:06:33.608Z,3.65
2018-12-17T08:07:33.597Z,3.63
2018-12-17T08:08:35.549Z,3.68
2018-12-17T08:09:33.575Z,3.65
2018-12-17T08:10:33.560Z,3.70
2018-12-17T08:11:33.549Z,3.68
2018-12-17T08:12:33.537Z,3.63
2018-12-17T08:13:33.529Z,3.70
2018-12-17T08:14:33.516Z,3.68
2018-12-17T08:15:33.499Z,3.78
2018-12-17T08:16:33.495Z,3.78
2018-12-17T08:17:33.482Z,3.73
2018-12-17T08:18:33.479Z,3.70
2018-12-17T08:19:33.454Z,3.76
2018-12-17T08:20:33.443Z,3.78
2018-12-17T08:21:33.432Z,3.74
2018-12-17T08:22:33.424Z,3.78
2018-12-17T08:23:33.407Z,3.74
2018-12-17T08:24:33.397Z,3.86
2018-12-17T08:25:33.384Z,3.78
2018-12-17T08:26:33.373Z,3.77
2018-12-17T08:27:33.361Z,3.76
2018-12-17T08:28:33.349Z,3.76
2018-12-17T08:29:33.335Z,3.81
2018-12-17T08:30:33.324Z,3.87
2018-12-17T08:31:33.313Z,3.87
2018-12-17T08:32:33.303Z,3.86
2018-12-17T08:33:33.292Z,4.01
2018-12-17T08:34:33.276Z,3.95
2018-12-17T08:35:33.264Z,3.95
2018-12-17T08:36:33.257Z,3.95
2018-12-17T08:37:33.241Z,4.01
2018-12-17T08:38:33.230Z,3.99
2018-12-17T08:39:33.252Z,4.01
2018-12-17T08:40:33.209Z,4.05
2018-12-17T08:41:33.194Z,4.08
2018-12-17T08:42:33.189Z,4.10
2018-12-17T08:43:33.175Z,4.13
2018-12-17T08:44:33.161Z,4.06
2018-12-17T08:45:33.148Z,4.17
2018-12-17T08:46:33.138Z,4.12
2018-12-17T08:47:33.135Z,4.14
2018-12-17T08:48:33.112Z,4.19
2018-12-17T08:49:33.103Z,4.16
2018-12-17T08:50:33.088Z,4.20
2018-12-17T08:51:33.079Z,4.20
2018-12-17T08:52:33.070Z,4.20
2018-12-17T08:53:33.061Z,4.19
2018-12-17T08:54:33.041Z,4.24
2018-12-17T08:55:33.050Z,4.34
2018-12-17T08:56:33.023Z,4.28
2018-12-17T08:57:37.911Z,4.37
2018-12-17T08:58:32.999Z,4.44
2018-12-17T08:59:32.982Z,4.37
2018-12-17T09:00:32.973Z,4.50
2018-12-17T09:01:32.968Z,4.49
2018-12-17T09:02:32.955Z,4.45
2018-12-17T09:03:32.936Z,4.50
2018-12-17T09:04:32.932Z,4.44
2018-12-17T09:05:32.923Z,4.40
2018-12-17T09:06:34.735Z,4.48
2018-12-17T09:07:32.892Z,4.52
2018-12-17T09:08:32.878Z,4.60
2018-12-17T09:09:32.871Z,4.60
2018-12-17T09:10:32.867Z,4.63
2018-12-17T09:11:32.858Z,4.63
2018-12-17T09:12:32.844Z,4.58
2018-12-17T09:13:32.833Z,4.55
2018-12-17T09:14:32.812Z,4.70
2018-12-17T09:15:32.804Z,4.55
2018-12-17T09:16:32.795Z,4.63
2018-12-17T09:17:32.783Z,4.67
2018-12-17T09:18:32.777Z,4.63
2018-12-17T09:19:32.761Z,4.66
2018-12-17T09:20:32.754Z,4.67
2018-12-17T09:21:32.745Z,4.70
2018-12-17T09:22:32.729Z,4.71
2018-12-17T09:23:32.729Z,4.75
2018-12-17T09:24:32.710Z,4.74
2018-12-17T09:25:32.693Z,4.77
2018-12-17T09:26:32.686Z,4.74
2018-12-17T09:27:32.675Z,4.75
2018-12-17T09:28:32.659Z,4.78
2018-12-17T09:29:32.648Z,4.82
2018-12-17T09:30:32.635Z,4.80
2018-12-17T09:31:32.622Z,4.78
2018-12-17T09:32:32.609Z,4.86
2018-12-17T09:33:32.599Z,4.84
2018-12-17T09:34:32.590Z,4.78
2018-12-17T09:35:32.653Z,4.87
2018-12-17T09:36:32.572Z,4.80
2018-12-17T09:37:32.560Z,4.77
2018-12-17T09:38:32.544Z,4.77
2018-12-17T09:39:32.532Z,4.84
2018-12-17T09:40:32.521Z,4.93
2018-12-17T09:41:32.521Z,4.89
2018-12-17T09:42:32.511Z,4.99
2018-12-17T09:43:32.489Z,4.97
2018-12-17T09:44:32.476Z,4.96
2018-12-17T09:45:32.466Z,4.93
2018-12-17T09:46:32.456Z,5.00
2018-12-17T09:47:32.445Z,4.94
2018-12-17T09:48:32.434Z,5.05
2018-12-17T09:49:32.425Z,5.04
2018-12-17T09:50:32.410Z,4.96
2018-12-17T09:51:32.398Z,5.04
2018-12-17T09:52:32.394Z,5.07
2018-12-17T09:53:32.376Z,5.08
2018-12-17T09:54:32.366Z,5.00
2018-12-17T09:55:32.361Z,5.10
2018-12-17T09:56:32.347Z,5.08
2018-12-17T09:57:32.341Z,5.08
2018-12-17T09:58:32.324Z,4.97
2018-12-17T09:59:32.311Z,5.07
2018-12-17T10:00:32.296Z,5.04
2018-12-17T10:01:32.288Z,5.04
2018-12-17T10:02:32.272Z,5.08
2018-12-17T10:03:32.262Z,5.05
2018-12-17T10:04:32.253Z,5.11
2018-12-17T10:05:32.237Z,5.07
2018-12-17T10:06:32.230Z,5.15
2018-12-17T10:07:32.220Z,5.15
2018-12-17T10:08:32.221Z,5.15
2018-12-17T10:09:32.198Z,5.25
2018-12-17T10:10:32.193Z,5.17
2018-12-17T10:11:32.173Z,5.08
2018-12-17T10:12:32.165Z,5.21
2018-12-17T10:13:32.153Z,5.07
2018-12-17T10:14:32.140Z,5.08
2018-12-17T10:15:32.128Z,5.17
2018-12-17T10:16:32.117Z,5.07
2018-12-17T10:17:32.107Z,5.17
2018-12-17T10:18:36.808Z,5.14
2018-12-17T10:19:32.086Z,5.17
2018-12-17T10:20:32.073Z,5.18
2018-12-17T10:21:32.076Z,5.18
2018-12-17T10:22:32.051Z,5.17
2018-12-17T10:23:32.042Z,5.20
2018-12-17T10:24:32.030Z,5.18
2018-12-17T10:25:32.016Z,5.26
2018-12-17T10:26:32.005Z,5.25
2018-12-17T10:27:31.995Z,5.26
2018-12-17T10:28:31.982Z,5.26
2018-12-17T10:29:31.972Z,5.26
2018-12-17T10:30:32.709Z,5.25
2018-12-17T10:31:31.947Z,5.21
2018-12-17T10:32:31.938Z,5.26
2018-12-17T10:33:31.928Z,5.25
2018-12-17T10:34:31.913Z,5.23
2018-12-17T10:35:31.908Z,5.21
2018-12-17T10:36:31.897Z,5.23
2018-12-17T10:37:33.751Z,5.25
2018-12-17T10:38:31.874Z,5.35
2018-12-17T10:39:31.859Z,5.29
2018-12-17T10:40:31.851Z,5.33
2018-12-17T10:41:31.838Z,5.28
2018-12-17T10:42:31.824Z,5.46
2018-12-17T10:43:31.822Z,5.43
2018-12-17T10:44:31.803Z,5.48
2018-12-17T10:45:31.794Z,5.48
2018-12-17T10:46:31.782Z,5.50
2018-12-17T10:47:31.773Z,5.51
2018-12-17T10:48:31.758Z,5.51
2018-12-17T10:49:31.750Z,5.48
2018-12-17T10:50:31.741Z,5.50
2018-12-17T10:51:31.730Z,5.56
2018-12-17T10:52:31.717Z,5.54
2018-12-17T10:53:31.706Z,5.61
2018-12-17T10:54:31.722Z,5.59
2018-12-17T10:55:33.257Z,5.59
2018-12-17T10:56:31.672Z,5.68
2018-12-17T10:57:31.678Z,5.66
2018-12-17T10:58:31.652Z,5.69
2018-12-17T10:59:31.637Z,5.62
2018-12-17T11:00:31.632Z,5.69
2018-12-17T11:01:32.522Z,5.68
2018-12-17T11:02:31.608Z,5.71
2018-12-17T11:03:31.597Z,5.71
2018-12-17T11:04:31.584Z,5.75
2018-12-17T11:05:31.574Z,5.75
2018-12-17T11:06:31.565Z,5.80
2018-12-17T11:07:31.559Z,5.80
2018-12-17T11:08:31.557Z,5.79
2018-12-17T11:09:31.533Z,5.82
2018-12-17T11:10:31.529Z,5.76
2018-12-17T11:11:31.509Z,5.76
2018-12-17T11:12:31.516Z,5.80
2018-12-17T11:13:31.490Z,5.87
2018-12-17T11:14:31.477Z,5.86
2018-12-17T11:15:31.469Z,5.86
2018-12-17T11:16:31.456Z,5.89
2018-12-17T11:17:31.445Z,5.84
2018-12-17T11:18:31.434Z,5.84
2018-12-17T11:19:31.428Z,5.80
2018-12-17T11:20:31.416Z,5.79
2018-12-17T11:21:31.404Z,5.79
2018-12-17T11:22:31.391Z,5.83
2018-12-17T11:23:31.381Z,5.84
2018-12-17T11:24:31.372Z,5.87
2018-12-17T11:25:31.362Z,5.86
2018-12-17T11:26:33.266Z,5.93
2018-12-17T11:27:31.337Z,5.90
2018-12-17T11:28:31.326Z,5.94
2018-12-17T11:29:31.321Z,5.94
2018-12-17T11:30:31.304Z,5.94
2018-12-17T11:31:31.294Z,5.98
2018-12-17T11:32:31.285Z,5.97
2018-12-17T11:33:31.274Z,6.02
2018-12-17T11:34:31.266Z,6.07
2018-12-17T11:35:31.251Z,6.02
2018-12-17T11:36:31.245Z,6.04
2018-12-17T11:37:31.230Z,6.04
2018-12-17T11:38:31.220Z,6.04
2018-12-17T11:39:31.208Z,6.09
2018-12-17T11:40:32.780Z,6.14
2018-12-17T11:41:31.193Z,6.09
2018-12-17T11:42:31.178Z,6.08
2018-12-17T11:43:31.168Z,6.07
2018-12-17T11:44:31.157Z,6.04
2018-12-17T11:45:31.149Z,6.07
2018-12-17T11:46:31.138Z,6.12
2018-12-17T11:47:31.129Z,6.20
2018-12-17T11:48:31.136Z,6.20
2018-12-17T11:49:32.110Z,6.16
2018-12-17T11:50:31.094Z,6.22
2018-12-17T11:51:31.084Z,6.26
2018-12-17T11:52:31.079Z,6.26
2018-12-17T11:53:31.067Z,6.31
2018-12-17T11:54:31.056Z,6.22
2018-12-17T11:55:31.041Z,6.24
2018-12-17T11:56:31.031Z,6.24
2018-12-17T11:57:31.032Z,6.26
2018-12-17T11:58:31.012Z,6.28
2018-12-17T11:59:31.003Z,6.31
2018-12-17T12:00:30.992Z,6.24
2018-12-17T12:01:30.982Z,6.31
2018-12-17T12:02:30.973Z,6.26
2018-12-17T12:03:30.960Z,6.36
2018-12-17T12:04:30.949Z,6.30
2018-12-17T12:05:30.942Z,6.33
2018-12-17T12:06:30.927Z,6.38
2018-12-17T12:07:30.918Z,6.28
2018-12-17T12:08:30.907Z,6.33
2018-12-17T12:09:32.789Z,6.36
2018-12-17T12:10:30.889Z,6.42
2018-12-17T12:11:30.878Z,6.36
2018-12-17T12:12:30.866Z,6.41
2018-12-17T12:13:30.856Z,6.45
2018-12-17T12:14:30.843Z,6.41
2018-12-17T12:15:32.790Z,6.48
2018-12-17T12:16:30.823Z,6.38
2018-12-17T12:17:30.815Z,6.39
2018-12-17T12:18:30.804Z,6.39
2018-12-17T12:19:30.793Z,6.48
2018-12-17T12:20:30.785Z,6.44
2018-12-17T12:21:30.776Z,6.46
2018-12-17T12:22:30.762Z,6.45
2018-12-17T12:23:30.750Z,6.42
2018-12-17T12:24:30.743Z,6.39
2018-12-17T12:25:30.738Z,6.48
2018-12-17T12:26:30.720Z,6.41
2018-12-17T12:27:30.711Z,6.46
2018-12-17T12:28:30.700Z,6.46
2018-12-17T12:29:30.696Z,6.44
2018-12-17T12:30:30.679Z,6.46
2018-12-17T12:31:30.671Z,6.48
2018-12-17T12:32:30.655Z,6.39
2018-12-17T12:33:30.648Z,6.39
2018-12-17T12:34:30.637Z,6.48
2018-12-17T12:35:30.622Z,6.45
2018-12-17T12:36:30.621Z,6.45
2018-12-17T12:37:30.603Z,6.45
2018-12-17T12:38:30.594Z,6.45
2018-12-17T12:39:30.585Z,6.42
2018-12-17T12:40:30.578Z,6.39
2018-12-17T12:41:30.570Z,6.49
2018-12-17T12:42:30.555Z,6.51
2018-12-17T12:43:30.590Z,6.57
2018-12-17T12:44:30.540Z,6.48
2018-12-17T12:45:30.587Z,6.45
2018-12-17T12:46:30.510Z,6.42
2018-12-17T12:47:30.501Z,6.44
2018-12-17T12:48:30.494Z,6.44
2018-12-17T12:49:30.485Z,6.52
2018-12-17T12:50:30.473Z,6.48
2018-12-17T12:51:32.826Z,6.49
2018-12-17T12:52:30.453Z,6.45
2018-12-17T12:53:30.454Z,6.45
2018-12-17T12:54:30.426Z,6.46
2018-12-17T12:55:30.421Z,6.45
2018-12-17T12:56:30.412Z,6.42
2018-12-17T12:57:30.401Z,6.45
2018-12-17T12:58:30.388Z,6.44
2018-12-17T12:59:30.378Z,6.48
2018-12-17T13:00:30.368Z,6.46
2018-12-17T13:01:30.360Z,6.51
2018-12-17T13:02:30.351Z,6.52
2018-12-17T13:03:30.337Z,6.48
2018-12-17T13:04:30.326Z,6.52
2018-12-17T13:05:30.314Z,6.45
2018-12-17T13:06:30.305Z,6.59
2018-12-17T13:07:30.295Z,6.56
2018-12-17T13:08:30.286Z,6.51
2018-12-17T13:09:30.273Z,6.51
2018-12-17T13:10:30.265Z,6.59
2018-12-17T13:11:30.251Z,6.56
2018-12-17T13:12:30.243Z,6.51
2018-12-17T13:13:30.285Z,6.51
2018-12-17T13:14:30.225Z,6.42
2018-12-17T13:15:30.208Z,6.52
2018-12-17T13:16:30.281Z,6.42
2018-12-17T13:17:30.191Z,6.52
2018-12-17T13:18:30.181Z,6.54